createdAt,value
2018-08-18T00:00:15.539Z,18.00
2018-08-18T00:05:20.696Z,18.10
2018-08-18T00:10:26.304Z,18.00
2018-08-18T00:15:31.542Z,17.90
2018-08-18T00:20:36.365Z,17.90
2018-08-18T00:25:41.196Z,17.90
2018-08-18T00:30:46.476Z,17.90
2018-08-18T00:35:51.574Z,17.90
2018-08-18T00:40:56.381Z,18.00
2018-08-18T00:46:01.405Z,18.00
2018-08-18T00:51:06.338Z,18.10
2018-08-18T00:56:11.763Z,18.10
2018-08-18T01:01:16.500Z,18.10
2018-08-18T01:06:23.053Z,18.10
2018-08-18T01:11:28.321Z,18.10
2018-08-18T01:16:33.083Z,18.10
2018-08-18T01:21:39.151Z,18.00
2018-08-18T01:26:44.107Z,17.90
2018-08-18T01:31:48.996Z,17.90
2018-08-18T01:36:53.907Z,17.90
2018-08-18T01:41:59.050Z,17.90
2018-08-18T01:47:10.673Z,17.90
2018-08-18T01:52:20.581Z,17.90
2018-08-18T01:57:25.621Z,17.80
2018-08-18T02:02:30.321Z,17.90
2018-08-18T02:07:35.306Z,17.80
2018-08-18T02:12:46.354Z,17.90
2018-08-18T02:17:51.211Z,18.00
2018-08-18T02:22:56.050Z,17.90
2018-08-18T02:28:00.972Z,17.90
2018-08-18T02:33:05.957Z,17.80
2018-08-18T02:38:10.865Z,17.80
2018-08-18T02:43:23.704Z,17.70
2018-08-18T02:48:28.568Z,17.80
2018-08-18T02:53:33.261Z,17.90
2018-08-18T02:58:37.965Z,17.90
2018-08-18T03:03:43.167Z,18.00
2018-08-18T03:08:48.102Z,18.10
2018-08-18T03:13:52.941Z,18.10
2018-08-18T03:18:57.594Z,18.10
2018-08-18T03:24:23.527Z,18.20
2018-08-18T03:29:29.469Z,18.20
2018-08-18T03:34:34.205Z,18.30
2018-08-18T03:39:39.051Z,18.30
2018-08-18T03:44:52.185Z,18.30
2018-08-18T03:49:56.902Z,18.30
2018-08-18T03:55:02.100Z,18.30
2018-08-18T04:00:07.001Z,18.30
2018-08-18T04:05:11.934Z,18.30
2018-08-18T04:10:18.395Z,18.30
2018-08-18T04:15:23.383Z,18.40
2018-08-18T04:20:28.116Z,18.50
2018-08-18T04:25:32.977Z,18.50
2018-08-18T04:30:37.987Z,18.60
2018-08-18T04:35:47.500Z,18.70
2018-08-18T04:40:52.237Z,18.70
2018-08-18T04:45:57.609Z,18.70
2018-08-18T04:51:02.676Z,18.70
2018-08-18T04:56:08.474Z,18.60
2018-08-18T05:01:13.518Z,18.60
2018-08-18T05:06:18.573Z,18.70
2018-08-18T05:11:23.549Z,18.60
2018-08-18T05:16:29.120Z,18.80
2018-08-18T05:21:34.772Z,18.80
2018-08-18T05:26:39.615Z,18.80
2018-08-18T05:31:44.536Z,18.70
2018-08-18T05:36:49.403Z,18.70
2018-08-18T05:41:54.739Z,18.70
2018-08-18T05:46:59.792Z,18.70
2018-08-18T05:52:04.997Z,18.70
2018-08-18T05:57:10.147Z,18.80
2018-08-18T06:02:15.065Z,18.90
2018-08-18T06:07:20.041Z,18.90
2018-08-18T06:12:24.885Z,19.00
2018-08-18T06:17:32.407Z,19.20
2018-08-18T06:22:38.645Z,19.50
2018-08-18T06:27:43.939Z,19.60
2018-08-18T06:32:55.344Z,19.80
2018-08-18T06:38:01.519Z,19.90
2018-08-18T06:43:06.716Z,20.10
2018-08-18T06:48:19.413Z,20.30
2018-08-18T06:53:24.690Z,20.50
2018-08-18T06:58:29.523Z,20.70
2018-08-18T07:03:39.904Z,20.90
2018-08-18T07:08:50.399Z,21.30
2018-08-18T07:13:55.099Z,21.40
2018-08-18T07:19:00.483Z,21.80
2018-08-18T07:24:06.133Z,21.90
2018-08-18T07:29:11.053Z,21.90
2018-08-18T07:34:15.741Z,22.10
2018-08-18T07:39:22.553Z,22.10
2018-08-18T07:44:27.397Z,21.60
2018-08-18T07:49:33.323Z,22.00
2018-08-18T07:54:37.996Z,22.00
2018-08-18T07:59:42.997Z,22.20
2018-08-18T08:04:47.928Z,22.20
2018-08-18T08:09:52.948Z,22.40
2018-08-18T08:14:57.761Z,22.80
2018-08-18T08:20:02.643Z,23.20
2018-08-18T08:25:08.958Z,23.20
2018-08-18T08:30:13.914Z,23.30
2018-08-18T08:35:19.053Z,23.00
2018-08-18T08:40:24.735Z,22.80
2018-08-18T08:45:29.488Z,22.40
2018-08-18T08:50:34.506Z,22.50
2018-08-18T08:55:39.916Z,22.90
2018-08-18T09:00:45.184Z,23.20
2018-08-18T09:05:50.768Z,23.40
2018-08-18T09:10:55.500Z,23.20
2018-08-18T09:16:00.488Z,22.80
2018-08-18T09:21:05.239Z,23.20
2018-08-18T09:26:09.878Z,23.40
2018-08-18T09:31:15.341Z,23.50
2018-08-18T09:36:20.672Z,24.00
2018-08-18T09:41:25.537Z,23.90
2018-08-18T09:46:30.958Z,23.80
2018-08-18T09:51:35.681Z,23.20
2018-08-18T09:56:40.673Z,24.10
2018-08-18T10:01:45.504Z,24.50
2018-08-18T10:06:50.451Z,23.90
2018-08-18T10:11:55.304Z,24.00
2018-08-18T10:17:00.775Z,24.20
2018-08-18T10:22:06.538Z,24.30
2018-08-18T10:27:11.661Z,24.10
2018-08-18T10:32:16.479Z,24.10
2018-08-18T10:37:21.617Z,24.40
2018-08-18T10:42:26.411Z,24.70
2018-08-18T10:47:31.653Z,24.90
2018-08-18T10:52:47.449Z,24.80
2018-08-18T10:58:02.757Z,25.60
2018-08-18T11:04:30.399Z,26.00
2018-08-18T11:09:35.761Z,25.50
2018-08-18T11:14:42.972Z,25.50
2018-08-18T11:19:47.992Z,25.50
2018-08-18T11:24:53.235Z,26.30
2018-08-18T11:29:58.847Z,26.20
2018-08-18T11:35:08.535Z,26.30
2018-08-18T11:40:13.779Z,27.40
2018-08-18T11:45:20.905Z,28.30
2018-08-18T11:50:27.323Z,28.50
2018-08-18T11:55:32.960Z,30.10
2018-08-18T12:00:58.499Z,29.30
2018-08-18T12:06:07.118Z,28.90
2018-08-18T12:11:12.918Z,30.50
2018-08-18T12:16:20.008Z,30.10
2018-08-18T12:21:25.195Z,31.10
2018-08-18T12:26:30.065Z,31.90
2018-08-18T12:31:36.689Z,33.00
2018-08-18T12:36:41.570Z,33.10
2018-08-18T12:41:46.593Z,31.50
2018-08-18T12:46:51.495Z,32.70
2018-08-18T12:51:56.543Z,33.60
2018-08-18T12:57:06.382Z,33.70
2018-08-18T13:02:11.623Z,33.90
2018-08-18T13:07:16.767Z,32.30
2018-08-18T13:12:21.729Z,32.00
2018-08-18T13:17:26.872Z,32.50
2018-08-18T13:22:32.143Z,31.60
2018-08-18T13:33:00.858Z,31.70
2018-08-18T13:38:11.041Z,31.50
2018-08-18T13:43:16.329Z,31.70
2018-08-18T13:48:21.168Z,31.80
2018-08-18T13:53:27.170Z,32.10
2018-08-18T13:58:32.768Z,32.40
2018-08-18T14:03:37.682Z,32.80
2018-08-18T14:08:42.930Z,33.00
2018-08-18T14:13:47.691Z,32.00
2018-08-18T14:18:52.667Z,32.50
2018-08-18T14:23:57.491Z,32.30
2018-08-18T14:29:02.274Z,32.40
2018-08-18T14:34:07.218Z,33.20
2018-08-18T14:39:23.116Z,34.60
2018-08-18T14:44:30.184Z,34.90
2018-08-18T14:49:34.864Z,35.30
2018-08-18T14:54:40.047Z,34.80
2018-08-18T14:59:45.187Z,33.50
2018-08-18T15:04:50.350Z,33.10
2018-08-18T15:09:55.286Z,32.80
2018-08-18T15:15:00.853Z,32.70
2018-08-18T15:20:10.035Z,31.60
2018-08-18T15:25:15.036Z,32.50
2018-08-18T15:30:20.100Z,33.20
2018-08-18T15:35:26.025Z,33.10
2018-08-18T15:40:31.034Z,33.50
2018-08-18T15:45:46.603Z,33.00
2018-08-18T15:50:51.578Z,33.00
2018-08-18T15:55:57.094Z,32.80
2018-08-18T16:01:02.071Z,32.50
2018-08-18T16:06:07.703Z,32.60
2018-08-18T16:11:12.795Z,34.00
2018-08-18T16:16:17.633Z,34.10
2018-08-18T16:21:24.765Z,32.30
2018-08-18T16:26:29.694Z,32.40
2018-08-18T16:31:35.253Z,32.30
2018-08-18T16:36:45.049Z,32.20
2018-08-18T16:41:49.881Z,30.60
2018-08-18T16:46:54.653Z,30.60
2018-08-18T16:52:00.353Z,29.60
2018-08-18T16:57:05.355Z,28.90
2018-08-18T17:02:20.760Z,28.30
2018-08-18T17:07:27.643Z,28.00
2018-08-18T17:12:32.445Z,27.90
2018-08-18T17:17:37.402Z,27.60
2018-08-18T17:22:44.022Z,27.40
2018-08-18T17:27:49.002Z,27.30
2018-08-18T17:32:53.662Z,27.10
2018-08-18T17:37:59.106Z,26.90
2018-08-18T17:43:04.632Z,26.70
2018-08-18T17:48:10.212Z,26.60
2018-08-18T17:53:15.273Z,26.60
2018-08-18T17:58:21.408Z,26.60
2018-08-18T18:03:26.765Z,26.40
2018-08-18T18:08:31.957Z,26.20
2018-08-18T18:13:36.733Z,26.00
2018-08-18T18:18:48.829Z,26.10
2018-08-18T18:23:53.705Z,25.90
2018-08-18T18:29:00.537Z,25.50
2018-08-18T18:34:05.729Z,25.20
2018-08-18T18:39:10.776Z,25.00
2018-08-18T18:44:15.638Z,24.80
2018-08-18T18:49:32.154Z,24.70
2018-08-18T18:54:37.193Z,24.50
2018-08-18T18:59:47.655Z,24.50
2018-08-18T19:04:52.564Z,24.20
2018-08-18T19:10:02.341Z,24.10
2018-08-18T19:15:06.972Z,24.00
2018-08-18T19:20:17.906Z,24.00
2018-08-18T19:25:22.732Z,24.20
2018-08-18T19:30:27.431Z,24.10
2018-08-18T19:35:36.770Z,24.00
2018-08-18T19:40:43.573Z,23.90
2018-08-18T19:45:48.672Z,23.70
2018-08-18T19:50:58.896Z,23.60
2018-08-18T19:56:04.567Z,23.40
2018-08-18T20:01:09.580Z,23.30
2018-08-18T20:06:19.585Z,23.10
2018-08-18T20:11:24.333Z,22.80
2018-08-18T20:16:30.112Z,22.50
2018-08-18T20:21:35.857Z,22.40
2018-08-18T20:26:40.739Z,22.30
2018-08-18T20:31:56.137Z,22.10
2018-08-18T20:37:01.566Z,21.80
2018-08-18T20:42:06.945Z,21.80
2018-08-18T20:47:11.892Z,21.80
2018-08-18T20:52:16.649Z,21.70
2018-08-18T20:57:21.605Z,21.50
2018-08-18T21:02:26.995Z,21.50
2018-08-18T21:07:32.705Z,21.50
2018-08-18T21:12:42.248Z,21.50
2018-08-18T21:17:46.957Z,21.70
2018-08-18T21:22:51.646Z,21.80
2018-08-18T21:27:56.599Z,21.90
2018-08-18T21:33:01.552Z,21.90
2018-08-18T21:38:06.599Z,22.00
2018-08-18T21:43:21.163Z,22.10
2018-08-18T21:48:36.755Z,22.10
2018-08-18T21:53:42.915Z,22.10
2018-08-18T21:58:47.818Z,22.00
2018-08-18T22:03:55.604Z,21.90
2018-08-18T22:09:17.330Z,21.60
2018-08-18T22:14:22.097Z,21.40
2018-08-18T22:19:27.963Z,21.20
2018-08-18T22:24:32.929Z,21.20
2018-08-18T22:29:37.787Z,21.20
2018-08-18T22:34:42.754Z,21.20
2018-08-18T22:39:47.761Z,21.00
2018-08-18T22:44:52.598Z,20.90
2018-08-18T22:49:57.329Z,20.70
2018-08-18T22:55:02.203Z,20.80
2018-08-18T23:00:07.217Z,20.90
2018-08-18T23:05:11.624Z,21.00
2018-08-18T23:10:16.361Z,21.10
2018-08-18T23:15:20.979Z,21.10
2018-08-18T23:20:25.868Z,21.00
2018-08-18T23:25:31.719Z,20.70
2018-08-18T23:30:38.819Z,20.70
2018-08-18T23:35:44.013Z,20.70
2018-08-18T23:40:50.039Z,20.80
2018-08-18T23:45:54.871Z,20.80
2018-08-18T23:50:59.818Z,20.70
2018-08-18T23:56:04.632Z,20.70
